Time;durP1;ratioP1;P1;durP2;ratioP2;P2;SDS_P1;SDS_P2;PMS_P1;PMS_P2;Temp;Humidity;BMP_temperature;BMP_pressure;BME280_temperature;BME280_humidity;BME280_pressure;Samples;Min_cycle;Max_cycle;Signal;HPM_P1;HPM_P2
2021/08/19 00:02:08;;;;;;;5.67;4.37;;;;;;;;;;5040873;28;20590;-77
2021/08/19 00:05:12;;;;;;;6.80;4.63;;;;;;;;;;5053280;28;20188;-76
2021/08/19 00:08:16;;;;;;;7.60;4.33;;;;;;;;;;5052553;28;20224;-76
2021/08/19 00:11:19;;;;;;;6.37;4.50;;;;;;;;;;5053165;28;20223;-76
2021/08/19 00:14:24;;;;;;;6.07;4.10;;;;;;;;;;5033821;28;20181;-77
2021/08/19 00:17:28;;;;;;;8.97;5.13;;;;;;;;;;5044903;28;20207;-76
2021/08/19 00:20:32;;;;;;;10.10;4.90;;;;;;;;;;5050818;28;20192;-76
2021/08/19 00:23:36;;;;;;;7.47;4.30;;;;;;;;;;5050036;28;20205;-77
2021/08/19 00:26:40;;;;;;;5.20;3.53;;;;;;;;;;5049175;28;20183;-77
2021/08/19 00:29:44;;;;;;;6.17;4.70;;;;;;;;;;5049365;28;20203;-76
2021/08/19 00:32:48;;;;;;;6.27;4.20;;;;;;;;;;5037339;28;20643;-76
2021/08/19 00:35:55;;;;;;;6.47;4.03;;;;;;;;;;5049790;28;20658;-76
2021/08/19 00:38:59;;;;;;;8.90;4.33;;;;;;;;;;5048987;28;20168;-76
2021/08/19 00:42:05;;;;;;;7.70;4.30;;;;;;;;;;5049330;28;20315;-76
2021/08/19 00:45:09;;;;;;;6.17;4.33;;;;;;;;;;5041315;28;20196;-76
2021/08/19 00:48:14;;;;;;;6.73;3.93;;;;;;;;;;5056176;28;20212;-76
2021/08/19 00:51:17;;;;;;;7.20;4.07;;;;;;;;;;5056599;28;20224;-77
2021/08/19 00:54:24;;;;;;;7.33;4.07;;;;;;;;;;5056865;28;20184;-76
2021/08/19 00:57:28;;;;;;;6.33;3.90;;;;;;;;;;5056815;28;20666;-77
2021/08/19 01:00:32;;;;;;;6.27;4.00;;;;;;;;;;5044866;28;20180;-76
2021/08/19 01:03:38;;;;;;;7.77;4.30;;;;;;;;;;5055465;28;20199;-77
2021/08/19 01:06:42;;;;;;;5.10;3.40;;;;;;;;;;5048423;28;20211;-77
2021/08/19 01:09:46;;;;;;;7.47;4.90;;;;;;;;;;5056202;28;20212;-76
2021/08/19 01:12:50;;;;;;;10.17;4.33;;;;;;;;;;5047950;28;20187;-77
2021/08/19 01:15:54;;;;;;;7.60;4.87;;;;;;;;;;5055961;28;20555;-77
2021/08/19 01:18:58;;;;;;;7.60;4.30;;;;;;;;;;5055659;28;20686;-77
2021/08/19 01:22:02;;;;;;;7.57;4.60;;;;;;;;;;5056229;28;20219;-77
2021/08/19 01:25:07;;;;;;;6.47;5.00;;;;;;;;;;5055787;28;20180;-77
2021/08/19 01:28:11;;;;;;;9.17;5.27;;;;;;;;;;5055365;28;20189;-76
2021/08/19 01:31:19;;;;;;;8.13;4.73;;;;;;;;;;5055368;28;20223;-76
2021/08/19 01:34:24;;;;;;;8.00;4.70;;;;;;;;;;5036733;28;20185;-76
2021/08/19 01:37:28;;;;;;;6.70;4.77;;;;;;;;;;5035911;28;20180;-76
2021/08/19 01:40:32;;;;;;;6.67;4.30;;;;;;;;;;5035492;28;20185;-77
2021/08/19 01:43:39;;;;;;;6.63;4.37;;;;;;;;;;5051834;28;20188;-76
2021/08/19 01:46:43;;;;;;;6.67;4.87;;;;;;;;;;5036286;28;20520;-76
2021/08/19 01:49:47;;;;;;;8.97;4.90;;;;;;;;;;5024090;28;20544;-77
2021/08/19 01:52:51;;;;;;;9.10;4.53;;;;;;;;;;5046392;28;20192;-76
2021/08/19 01:55:55;;;;;;;7.37;4.67;;;;;;;;;;5054129;28;20183;-76
2021/08/19 01:58:59;;;;;;;7.67;4.50;;;;;;;;;;5055550;28;20227;-77
2021/08/19 02:02:03;;;;;;;8.20;4.77;;;;;;;;;;5054886;28;20531;-77
2021/08/19 02:05:07;;;;;;;6.87;4.50;;;;;;;;;;5055036;28;20180;-77
2021/08/19 02:08:12;;;;;;;6.93;5.00;;;;;;;;;;5043124;28;20199;-76
2021/08/19 02:11:16;;;;;;;11.23;5.33;;;;;;;;;;5055554;28;20208;-76
2021/08/19 02:14:20;;;;;;;7.03;4.27;;;;;;;;;;5055624;28;20195;-76
2021/08/19 02:17:24;;;;;;;7.93;4.63;;;;;;;;;;5055794;28;20180;-76
2021/08/19 02:20:28;;;;;;;8.50;5.43;;;;;;;;;;5055442;28;20169;-77
2021/08/19 02:23:33;;;;;;;7.27;5.00;;;;;;;;;;5054376;28;20204;-76
2021/08/19 02:26:37;;;;;;;7.97;4.90;;;;;;;;;;5055258;28;20544;-76
2021/08/19 02:29:41;;;;;;;6.63;4.30;;;;;;;;;;5054676;28;20683;-77
2021/08/19 02:32:52;;;;;;;7.23;4.70;;;;;;;;;;5055174;28;20215;-76
2021/08/19 02:35:56;;;;;;;7.63;4.53;;;;;;;;;;5054477;28;20184;-77
2021/08/19 02:39:00;;;;;;;8.53;4.57;;;;;;;;;;5054884;28;20184;-76
2021/08/19 02:42:04;;;;;;;6.03;3.97;;;;;;;;;;5053877;28;20219;-77
2021/08/19 02:45:08;;;;;;;6.63;4.60;;;;;;;;;;5054285;28;20184;-77
2021/08/19 02:48:12;;;;;;;5.60;4.23;;;;;;;;;;5054735;28;20204;-77
2021/08/19 02:51:16;;;;;;;5.57;3.77;;;;;;;;;;5055121;28;20212;-76
2021/08/19 02:54:21;;;;;;;7.93;4.53;;;;;;;;;;5054860;28;20196;-77
2021/08/19 02:57:25;;;;;;;8.40;4.20;;;;;;;;;;5054478;28;20192;-77
2021/08/19 03:00:29;;;;;;;6.97;4.10;;;;;;;;;;5053632;28;20192;-76
2021/08/19 03:03:33;;;;;;;6.30;4.03;;;;;;;;;;5034571;28;20185;-76
2021/08/19 03:06:37;;;;;;;5.50;3.90;;;;;;;;;;5033737;28;20184;-76
2021/08/19 03:09:41;;;;;;;7.43;4.30;;;;;;;;;;5053497;28;20216;-76
2021/08/19 03:12:45;;;;;;;13.23;4.57;;;;;;;;;;5054638;28;20220;-77
2021/08/19 03:15:49;;;;;;;6.57;3.83;;;;;;;;;;5054376;28;20638;-77
2021/08/19 03:18:53;;;;;;;5.97;3.93;;;;;;;;;;5065739;23;20553;-77
2021/08/19 03:21:59;;;;;;;5.30;3.87;;;;;;;;;;5074361;28;20222;-77
2021/08/19 03:25:07;;;;;;;6.17;3.90;;;;;;;;;;5073569;28;20179;-77
2021/08/19 03:28:12;;;;;;;5.90;3.87;;;;;;;;;;5065513;28;20200;-76
2021/08/19 03:31:16;;;;;;;8.27;4.30;;;;;;;;;;5068082;28;20203;-76
2021/08/19 03:34:20;;;;;;;5.33;3.90;;;;;;;;;;5074412;28;20183;-77
2021/08/19 03:37:26;;;;;;;4.33;3.40;;;;;;;;;;5071612;28;20184;-77
2021/08/19 03:40:30;;;;;;;5.03;3.87;;;;;;;;;;5069833;28;20187;-77
2021/08/19 03:43:34;;;;;;;7.53;4.57;;;;;;;;;;5071979;28;20523;-77
2021/08/19 03:46:38;;;;;;;6.07;4.20;;;;;;;;;;5053983;28;20184;-77
2021/08/19 03:49:42;;;;;;;8.17;4.03;;;;;;;;;;5053244;28;20540;-77
2021/08/19 03:52:46;;;;;;;6.43;4.43;;;;;;;;;;5046257;28;20219;-76
2021/08/19 03:55:50;;;;;;;6.37;4.57;;;;;;;;;;5073104;28;20179;-77
2021/08/19 03:58:55;;;;;;;7.17;4.60;;;;;;;;;;5069999;28;20188;-77
2021/08/19 04:02:00;;;;;;;6.83;3.90;;;;;;;;;;5041409;28;20220;-77
2021/08/19 04:05:04;;;;;;;5.77;3.87;;;;;;;;;;5052856;28;20180;-77
2021/08/19 04:08:08;;;;;;;5.57;3.93;;;;;;;;;;5065212;28;20188;-77
2021/08/19 04:11:12;;;;;;;4.70;3.43;;;;;;;;;;5053459;28;20215;-77
2021/08/19 04:14:16;;;;;;;6.13;3.90;;;;;;;;;;5053011;28;20200;-76
2021/08/19 04:17:21;;;;;;;6.03;3.93;;;;;;;;;;5053149;28;20184;-77
2021/08/19 04:20:25;;;;;;;5.70;3.57;;;;;;;;;;5071167;28;20661;-77
2021/08/19 04:23:30;;;;;;;5.33;3.70;;;;;;;;;;5072414;28;20191;-77
2021/08/19 04:26:34;;;;;;;5.97;3.70;;;;;;;;;;5070260;28;20552;-77
2021/08/19 04:29:38;;;;;;;7.97;3.60;;;;;;;;;;5060837;28;20220;-77
2021/08/19 04:32:42;;;;;;;6.43;3.53;;;;;;;;;;5053138;28;20694;-76
2021/08/19 04:35:46;;;;;;;4.17;3.53;;;;;;;;;;5053477;28;20523;-75
2021/08/19 04:38:50;;;;;;;6.27;3.17;;;;;;;;;;5065394;28;20184;-76
2021/08/19 04:41:54;;;;;;;4.60;3.27;;;;;;;;;;5071377;28;20215;-76
2021/08/19 04:44:59;;;;;;;5.73;3.53;;;;;;;;;;5059393;28;20183;-75
2021/08/19 04:48:03;;;;;;;3.93;3.10;;;;;;;;;;5072660;28;20179;-76
2021/08/19 04:51:07;;;;;;;5.00;3.17;;;;;;;;;;5053016;28;20555;-76
2021/08/19 04:54:11;;;;;;;5.23;3.70;;;;;;;;;;5055309;28;20191;-76
2021/08/19 04:57:15;;;;;;;5.10;3.17;;;;;;;;;;5063531;28;20506;-75
2021/08/19 05:00:19;;;;;;;7.37;3.47;;;;;;;;;;5056509;28;20180;-76
2021/08/19 05:03:23;;;;;;;4.63;3.20;;;;;;;;;;5053319;28;20188;-75
2021/08/19 05:06:28;;;;;;;4.67;3.10;;;;;;;;;;5052733;28;20184;-75
2021/08/19 05:09:32;;;;;;;4.47;3.00;;;;;;;;;;5064307;28;20203;-77
2021/08/19 05:12:36;;;;;;;4.07;3.00;;;;;;;;;;5057631;28;20689;-76
2021/08/19 05:15:40;;;;;;;6.00;2.80;;;;;;;;;;5053932;28;20199;-76
2021/08/19 05:18:45;;;;;;;7.10;3.00;;;;;;;;;;5055261;28;20204;-76
2021/08/19 05:21:49;;;;;;;4.77;2.60;;;;;;;;;;5054659;28;20215;-76
2021/08/19 05:24:53;;;;;;;4.17;2.83;;;;;;;;;;5040834;28;20180;-76
2021/08/19 05:27:58;;;;;;;5.33;2.87;;;;;;;;;;5052235;28;20184;-75
2021/08/19 05:31:02;;;;;;;3.37;2.70;;;;;;;;;;5068040;28;20219;-76
2021/08/19 05:34:08;;;;;;;8.40;2.93;;;;;;;;;;5055927;28;20188;-76
2021/08/19 05:37:12;;;;;;;3.57;2.80;;;;;;;;;;5055898;28;20180;-75
2021/08/19 05:40:16;;;;;;;4.00;2.60;;;;;;;;;;5073595;28;20191;-76
2021/08/19 05:43:21;;;;;;;3.93;2.70;;;;;;;;;;5073316;28;20188;-76
2021/08/19 05:46:25;;;;;;;3.70;2.50;;;;;;;;;;5070759;28;20641;-76
2021/08/19 05:49:29;;;;;;;4.47;2.90;;;;;;;;;;5063642;28;20187;-76
2021/08/19 05:52:33;;;;;;;4.53;2.50;;;;;;;;;;5056083;28;20579;-76
2021/08/19 05:55:37;;;;;;;4.83;3.23;;;;;;;;;;5055978;28;20204;-76
2021/08/19 05:58:42;;;;;;;5.47;3.00;;;;;;;;;;5055773;28;20192;-76
2021/08/19 06:01:46;;;;;;;3.50;2.93;;;;;;;;;;5055949;28;20220;-76
2021/08/19 06:04:50;;;;;;;4.13;2.83;;;;;;;;;;5056328;28;20200;-76
2021/08/19 06:07:54;;;;;;;4.67;3.37;;;;;;;;;;5071974;28;20199;-76
2021/08/19 06:10:58;;;;;;;4.20;3.13;;;;;;;;;;5075340;28;20218;-76
2021/08/19 06:14:03;;;;;;;3.73;3.10;;;;;;;;;;5055830;28;20196;-76
2021/08/19 06:17:07;;;;;;;4.83;2.80;;;;;;;;;;5055404;28;20184;-76
2021/08/19 06:20:11;;;;;;;5.60;2.77;;;;;;;;;;5071817;28;20539;-76
2021/08/19 06:23:15;;;;;;;4.13;3.60;;;;;;;;;;5067260;28;20203;-76
2021/08/19 06:26:19;;;;;;;6.83;3.80;;;;;;;;;;5073136;28;20543;-76
2021/08/19 06:29:23;;;;;;;5.23;3.23;;;;;;;;;;5065887;28;20188;-76
2021/08/19 06:32:28;;;;;;;5.60;3.40;;;;;;;;;;5054777;28;20208;-77
2021/08/19 06:35:32;;;;;;;3.83;3.23;;;;;;;;;;5062443;28;20183;-75
2021/08/19 06:38:37;;;;;;;4.17;3.00;;;;;;;;;;5064514;28;20204;-76
2021/08/19 06:41:41;;;;;;;5.27;3.03;;;;;;;;;;5060416;28;20211;-77
2021/08/19 06:44:45;;;;;;;3.47;2.90;;;;;;;;;;5055458;28;20200;-76
2021/08/19 06:47:49;;;;;;;3.67;2.70;;;;;;;;;;5055050;28;20176;-76
2021/08/19 06:50:54;;;;;;;3.13;2.80;;;;;;;;;;5055025;28;20228;-75
2021/08/19 06:53:58;;;;;;;4.03;2.83;;;;;;;;;;5054061;28;20185;-76
2021/08/19 06:57:03;;;;;;;5.63;2.83;;;;;;;;;;5055180;28;20176;-75
2021/08/19 07:00:08;;;;;;;2.90;2.07;;;;;;;;;;5054054;28;20180;-76
2021/08/19 07:03:14;;;;;;;2.87;2.10;;;;;;;;;;5054315;28;20516;-76
2021/08/19 07:06:19;;;;;;;3.27;1.80;;;;;;;;;;5054098;28;20184;-76
2021/08/19 07:09:23;;;;;;;3.43;2.63;;;;;;;;;;5054649;28;20195;-76
2021/08/19 07:12:27;;;;;;;3.97;2.57;;;;;;;;;;5054439;28;20204;-76
2021/08/19 07:15:31;;;;;;;2.93;2.20;;;;;;;;;;5054545;28;20638;-76
2021/08/19 07:18:35;;;;;;;3.07;2.40;;;;;;;;;;5053841;28;20642;-77
2021/08/19 07:21:39;;;;;;;3.73;2.90;;;;;;;;;;5053862;28;20220;-76
2021/08/19 07:24:43;;;;;;;4.23;2.20;;;;;;;;;;5054379;28;20176;-77
2021/08/19 07:27:48;;;;;;;3.63;3.23;;;;;;;;;;5042350;28;20508;-76
2021/08/19 07:30:52;;;;;;;5.67;3.10;;;;;;;;;;5059173;28;20219;-76
2021/08/19 07:33:56;;;;;;;4.37;2.73;;;;;;;;;;5070087;28;20194;-76
2021/08/19 07:37:01;;;;;;;7.17;3.03;;;;;;;;;;5054404;28;20184;-77
2021/08/19 07:40:05;;;;;;;3.63;3.23;;;;;;;;;;5053602;28;20659;-77
2021/08/19 07:43:10;;;;;;;5.17;2.43;;;;;;;;;;5054381;28;20183;-76
2021/08/19 07:46:14;;;;;;;4.60;2.80;;;;;;;;;;5053302;28;20184;-77
2021/08/19 07:49:20;;;;;;;3.23;2.27;;;;;;;;;;5053110;28;20531;-76
2021/08/19 07:52:24;;;;;;;4.07;2.33;;;;;;;;;;5052168;28;20540;-76
2021/08/19 07:55:29;;;;;;;3.40;2.43;;;;;;;;;;5053317;28;20188;-77
2021/08/19 07:58:33;;;;;;;3.50;2.00;;;;;;;;;;5054063;28;20180;-76
2021/08/19 08:01:38;;;;;;;2.47;2.10;;;;;;;;;;5053618;28;20211;-77
2021/08/19 08:04:42;;;;;;;6.83;2.77;;;;;;;;;;5053465;28;20188;-76
2021/08/19 08:07:46;;;;;;;4.07;2.33;;;;;;;;;;5042092;28;20180;-76
2021/08/19 08:10:51;;;;;;;3.10;2.33;;;;;;;;;;5052710;28;20219;-76
2021/08/19 08:13:56;;;;;;;3.40;2.47;;;;;;;;;;5052688;28;20199;-77
2021/08/19 08:17:00;;;;;;;2.93;2.07;;;;;;;;;;5052703;28;20176;-77
2021/08/19 08:20:06;;;;;;;1.90;1.60;;;;;;;;;;5053402;28;20199;-77
2021/08/19 08:23:11;;;;;;;3.73;1.93;;;;;;;;;;5053681;28;20176;-77
2021/08/19 08:26:15;;;;;;;2.77;1.80;;;;;;;;;;5052750;28;20188;-76
2021/08/19 08:29:20;;;;;;;4.53;1.63;;;;;;;;;;5053502;28;20203;-77
2021/08/19 08:32:26;;;;;;;3.67;2.03;;;;;;;;;;5070693;28;20222;-76
2021/08/19 08:35:34;;;;;;;4.13;1.80;;;;;;;;;;5073339;28;20524;-76
2021/08/19 08:38:38;;;;;;;2.40;1.90;;;;;;;;;;5073719;28;20179;-77
2021/08/19 08:41:42;;;;;;;2.60;1.70;;;;;;;;;;5073525;28;20214;-77
2021/08/19 08:44:46;;;;;;;2.33;1.60;;;;;;;;;;5061214;28;20180;-76
2021/08/19 08:47:51;;;;;;;2.70;2.00;;;;;;;;;;5049137;28;20187;-77
2021/08/19 08:50:59;;;;;;;2.13;1.80;;;;;;;;;;5072166;28;20227;-77
2021/08/19 08:54:03;;;;;;;2.30;2.00;;;;;;;;;;5072570;28;20646;-76
2021/08/19 08:57:07;;;;;;;3.23;1.90;;;;;;;;;;5072601;28;20180;-76
2021/08/19 09:00:12;;;;;;;2.83;2.00;;;;;;;;;;5072453;28;20195;-76
2021/08/19 09:03:19;;;;;;;4.30;1.90;;;;;;;;;;5072723;28;20535;-77
2021/08/19 09:06:40;;;;;;;2.43;1.80;;;;;;;;;;5077323;28;20183;-76
2021/08/19 09:09:44;;;;;;;3.37;2.00;;;;;;;;;;5076528;28;20180;-76
2021/08/19 09:12:49;;;;;;;3.23;1.70;;;;;;;;;;5064959;28;20207;-77
2021/08/19 09:15:53;;;;;;;4.90;2.10;;;;;;;;;;5077079;28;20191;-77
2021/08/19 09:19:08;;;;;;;2.43;1.90;;;;;;;;;;5085819;22;20199;-74
2021/08/19 09:22:15;;;;;;;2.33;1.83;;;;;;;;;;5028912;28;20217;-75
2021/08/19 09:25:26;;;;;;;4.10;1.67;;;;;;;;;;5032000;28;20193;-75
2021/08/19 09:28:30;;;;;;;3.00;1.40;;;;;;;;;;5016071;28;20209;-75
2021/08/19 09:31:37;;;;;;;2.13;1.70;;;;;;;;;;5026748;28;20228;-74
2021/08/19 09:34:44;;;;;;;2.33;1.77;;;;;;;;;;5030792;28;20197;-74
2021/08/19 09:37:48;;;;;;;2.60;1.87;;;;;;;;;;5017116;28;20182;-75
2021/08/19 09:41:06;;;;;;;1.57;1.43;;;;;;;;;;5030377;28;20217;-74
2021/08/19 09:44:10;;;;;;;2.67;1.70;;;;;;;;;;5023255;28;20516;-74
2021/08/19 09:47:29;;;;;;;3.30;1.80;;;;;;;;;;5018433;28;20185;-74
2021/08/19 09:50:34;;;;;;;6.30;1.80;;;;;;;;;;5036452;28;20517;-74
2021/08/19 09:53:46;;;;;;;3.73;1.80;;;;;;;;;;5036791;28;20190;-75
2021/08/19 09:56:51;;;;;;;2.20;1.73;;;;;;;;;;5015991;28;20632;-75
2021/08/19 09:59:55;;;;;;;2.93;1.70;;;;;;;;;;5032970;28;20643;-75
2021/08/19 10:02:59;;;;;;;2.93;1.80;;;;;;;;;;5004357;28;20188;-74
2021/08/19 10:06:03;;;;;;;3.63;1.63;;;;;;;;;;5025447;28;20183;-73
2021/08/19 10:09:08;;;;;;;2.53;1.50;;;;;;;;;;5028505;28;20202;-74
2021/08/19 10:12:13;;;;;;;3.03;1.23;;;;;;;;;;5033689;28;20220;-74
2021/08/19 10:15:17;;;;;;;1.60;1.10;;;;;;;;;;5031480;28;20204;-75
2021/08/19 10:18:28;;;;;;;1.60;1.37;;;;;;;;;;5016260;28;20188;-75
2021/08/19 10:21:35;;;;;;;3.20;1.37;;;;;;;;;;5015802;28;20216;-75
2021/08/19 10:24:42;;;;;;;3.10;1.40;;;;;;;;;;5008330;28;20193;-74
2021/08/19 10:27:46;;;;;;;3.37;1.37;;;;;;;;;;5035039;28;20191;-75
2021/08/19 10:30:57;;;;;;;1.03;0.93;;;;;;;;;;5027584;28;20702;-74
2021/08/19 10:34:03;;;;;;;1.83;1.13;;;;;;;;;;5032626;28;20208;-74
2021/08/19 10:37:07;;;;;;;2.90;1.13;;;;;;;;;;5015008;28;20517;-75
2021/08/19 10:40:20;;;;;;;1.20;1.00;;;;;;;;;;5015215;28;20653;-74
2021/08/19 10:43:28;;;;;;;1.93;0.90;;;;;;;;;;5025893;28;20201;-74
2021/08/19 10:46:45;;;;;;;1.43;1.20;;;;;;;;;;5023841;28;20189;-75
2021/08/19 10:49:49;;;;;;;1.40;1.10;;;;;;;;;;5016952;28;20184;-74
2021/08/19 10:52:55;;;;;;;2.00;1.27;;;;;;;;;;5035318;28;20201;-75
2021/08/19 10:55:59;;;;;;;1.47;1.00;;;;;;;;;;5004167;28;20186;-74
2021/08/19 10:59:27;;;;;;;2.17;1.10;;;;;;;;;;5017054;28;20182;-75
2021/08/19 11:02:47;;;;;;;1.27;1.13;;;;;;;;;;5034508;28;20217;-75
2021/08/19 11:05:52;;;;;;;2.60;0.90;;;;;;;;;;5015364;28;20187;-74
2021/08/19 11:08:58;;;;;;;1.30;1.20;;;;;;;;;;5017442;28;20201;-75
2021/08/19 11:12:07;;;;;;;2.20;1.20;;;;;;;;;;5028666;28;20221;-75
2021/08/19 11:15:11;;;;;;;1.80;1.10;;;;;;;;;;5031791;28;20195;-74
2021/08/19 11:18:26;;;;;;;1.30;1.20;;;;;;;;;;5014068;28;20182;-75
2021/08/19 11:21:30;;;;;;;2.07;1.17;;;;;;;;;;5014700;28;20218;-75
2021/08/19 11:24:37;;;;;;;2.33;1.30;;;;;;;;;;5026734;28;20189;-75
2021/08/19 11:27:41;;;;;;;6.37;1.30;;;;;;;;;;5027698;28;20194;-75
2021/08/19 11:30:48;;;;;;;3.60;1.57;;;;;;;;;;5015762;28;20230;-74
2021/08/19 11:34:01;;;;;;;1.77;1.33;;;;;;;;;;5023921;28;20186;-74
2021/08/19 11:37:06;;;;;;;2.75;1.55;;;;;;;;;;5006597;28;20200;-74
2021/08/19 11:40:10;;;;;;;2.28;1.20;;;;;;;;;;5018819;28;20202;-75
2021/08/19 11:43:17;;;;;;;1.83;1.30;;;;;;;;;;5023308;28;20195;-74
2021/08/19 11:46:27;;;;;;;1.73;1.58;;;;;;;;;;5014313;28;20206;-74
2021/08/19 11:49:32;;;;;;;1.35;1.25;;;;;;;;;;5013790;28;20183;-75
2021/08/19 11:52:36;;;;;;;2.00;1.20;;;;;;;;;;5013469;28;20707;-75
2021/08/19 11:55:40;;;;;;;1.60;1.40;;;;;;;;;;5034035;28;20186;-75
2021/08/19 11:58:44;;;;;;;1.70;1.20;;;;;;;;;;5027265;28;20197;-75
2021/08/19 12:01:50;;;;;;;2.35;1.80;;;;;;;;;;5013192;28;20210;-75
2021/08/19 12:05:06;;;;;;;3.00;1.55;;;;;;;;;;5027862;28;20185;-74
2021/08/19 12:08:10;;;;;;;1.75;1.40;;;;;;;;;;5030699;28;20190;-75
2021/08/19 12:11:20;;;;;;;1.98;1.40;;;;;;;;;;5024757;28;20217;-75
2021/08/19 12:14:26;;;;;;;1.90;1.38;;;;;;;;;;5024851;28;20206;-75
2021/08/19 12:17:31;;;;;;;2.55;1.40;;;;;;;;;;5022202;28;20199;-75
2021/08/19 12:20:37;;;;;;;1.30;1.15;;;;;;;;;;5013090;28;20213;-74
2021/08/19 12:23:41;;;;;;;2.40;1.40;;;;;;;;;;5016569;28;20201;-74
2021/08/19 12:27:07;;;;;;;1.40;1.20;;;;;;;;;;5021464;28;20640;-74
2021/08/19 12:30:11;;;;;;;1.80;1.30;;;;;;;;;;5037249;28;20196;-74
2021/08/19 12:33:31;;;;;;;2.80;1.17;;;;;;;;;;5020502;28;20213;-75
2021/08/19 12:36:35;;;;;;;1.90;1.27;;;;;;;;;;5019917;28;20199;-74
2021/08/19 12:39:46;;;;;;;1.87;1.30;;;;;;;;;;5032545;28;20196;-75
2021/08/19 12:42:50;;;;;;;1.90;1.50;;;;;;;;;;5030086;28;20214;-75
2021/08/19 12:46:05;;;;;;;1.40;1.30;;;;;;;;;;5032618;28;20189;-75
2021/08/19 12:49:32;;;;;;;2.17;1.40;;;;;;;;;;5031659;28;20529;-75
2021/08/19 12:52:37;;;;;;;3.60;1.20;;;;;;;;;;5018369;28;20215;-75
2021/08/19 12:55:42;;;;;;;1.40;1.30;;;;;;;;;;5013612;28;20189;-75
2021/08/19 12:58:46;;;;;;;1.80;1.07;;;;;;;;;;5013523;28;20179;-75
2021/08/19 13:01:50;;;;;;;1.70;1.40;;;;;;;;;;5014496;28;20696;-74
2021/08/19 13:04:56;;;;;;;2.10;1.40;;;;;;;;;;5027984;28;20198;-74
2021/08/19 13:08:02;;;;;;;1.10;1.00;;;;;;;;;;5013900;28;20186;-75
2021/08/19 13:11:08;;;;;;;4.20;1.50;;;;;;;;;;5014491;28;20221;-74
2021/08/19 13:14:12;;;;;;;4.13;1.40;;;;;;;;;;5014991;28;20186;-75
2021/08/19 13:17:16;;;;;;;1.63;1.00;;;;;;;;;;5013699;28;20185;-74
2021/08/19 13:20:20;;;;;;;2.10;1.20;;;;;;;;;;5013151;28;20214;-75
2021/08/19 13:23:28;;;;;;;1.17;1.00;;;;;;;;;;5015546;28;20182;-74
2021/08/19 13:26:32;;;;;;;1.50;1.20;;;;;;;;;;5030268;28;20198;-74
2021/08/19 13:29:37;;;;;;;1.10;1.00;;;;;;;;;;5021114;28;20182;-74
2021/08/19 13:32:41;;;;;;;3.30;1.37;;;;;;;;;;5012135;28;20219;-74
2021/08/19 13:35:45;;;;;;;1.83;1.40;;;;;;;;;;5021068;28;20192;-75
2021/08/19 13:38:49;;;;;;;2.83;1.40;;;;;;;;;;5012904;28;20199;-74
2021/08/19 13:41:54;;;;;;;1.57;1.40;;;;;;;;;;5014058;28;20230;-74
2021/08/19 13:44:58;;;;;;;5.47;1.37;;;;;;;;;;5012512;28;20188;-74
2021/08/19 13:48:03;;;;;;;1.77;1.20;;;;;;;;;;5030234;28;20189;-74
2021/08/19 13:51:07;;;;;;;2.00;1.10;;;;;;;;;;5034519;28;20215;-77
2021/08/19 13:54:12;;;;;;;1.97;1.23;;;;;;;;;;5016679;28;20645;-75
2021/08/19 13:57:16;;;;;;;1.43;1.33;;;;;;;;;;5030675;28;20193;-74
2021/08/19 14:00:20;;;;;;;2.73;1.20;;;;;;;;;;5021322;28;20196;-75
2021/08/19 14:03:24;;;;;;;1.93;1.50;;;;;;;;;;5023367;28;20193;-74
2021/08/19 14:06:28;;;;;;;1.83;1.30;;;;;;;;;;5025085;28;20197;-75
2021/08/19 14:09:32;;;;;;;1.10;1.00;;;;;;;;;;5016204;28;20194;-74
2021/08/19 14:12:36;;;;;;;1.27;1.10;;;;;;;;;;5024810;28;20221;-75
2021/08/19 14:15:40;;;;;;;3.23;1.50;;;;;;;;;;5035918;28;20201;-74
2021/08/19 14:18:44;;;;;;;2.30;1.10;;;;;;;;;;5035666;28;20207;-74
2021/08/19 14:21:48;;;;;;;2.50;1.30;;;;;;;;;;5023680;28;20238;-74
2021/08/19 14:24:52;;;;;;;3.10;1.40;;;;;;;;;;5015782;28;20205;-75
2021/08/19 14:27:57;;;;;;;4.20;1.40;;;;;;;;;;5016083;28;20618;-75
2021/08/19 14:31:02;;;;;;;11.93;1.70;;;;;;;;;;5019182;28;20222;-74
2021/08/19 14:34:05;;;;;;;1.80;1.20;;;;;;;;;;5034979;28;20210;-74
2021/08/19 14:37:11;;;;;;;2.07;1.10;;;;;;;;;;5014781;28;20528;-75
2021/08/19 14:40:15;;;;;;;1.98;1.40;;;;;;;;;;5014864;28;20181;-74
2021/08/19 14:43:20;;;;;;;1.37;1.27;;;;;;;;;;5032828;28;20178;-74
2021/08/19 14:46:25;;;;;;;1.67;1.20;;;;;;;;;;5015729;28;20192;-74
2021/08/19 14:49:29;;;;;;;3.13;1.40;;;;;;;;;;5028034;28;20193;-74
2021/08/19 14:52:33;;;;;;;4.70;1.20;;;;;;;;;;5030291;28;20219;-75
2021/08/19 14:55:39;;;;;;;3.80;1.30;;;;;;;;;;5023643;28;20553;-75
2021/08/19 14:58:43;;;;;;;1.23;1.10;;;;;;;;;;5022947;28;20548;-74
2021/08/19 15:01:48;;;;;;;6.40;1.50;;;;;;;;;;5034436;28;20694;-75
2021/08/19 15:04:52;;;;;;;6.85;1.30;;;;;;;;;;5033363;28;20634;-75
2021/08/19 15:07:55;;;;;;;1.33;1.20;;;;;;;;;;5034498;28;20635;-75
2021/08/19 15:10:59;;;;;;;1.60;1.13;;;;;;;;;;5031751;28;20229;-74
2021/08/19 15:14:06;;;;;;;1.80;1.15;;;;;;;;;;5032257;28;20207;-74
2021/08/19 15:17:10;;;;;;;6.22;1.17;;;;;;;;;;5011953;28;20203;-75
2021/08/19 15:20:15;;;;;;;2.35;1.00;;;;;;;;;;5022635;23;20208;-77
2021/08/19 15:23:18;;;;;;;1.33;0.93;;;;;;;;;;5054693;28;20534;-78
2021/08/19 15:26:23;;;;;;;2.28;0.80;;;;;;;;;;5051123;28;20191;-76
2021/08/19 15:29:28;;;;;;;2.33;1.23;;;;;;;;;;5054285;28;20194;-77
2021/08/19 15:32:32;;;;;;;3.38;0.90;;;;;;;;;;5035447;28;20220;-77
2021/08/19 15:35:36;;;;;;;2.00;1.00;;;;;;;;;;5048085;28;20196;-77
2021/08/19 15:38:42;;;;;;;1.10;0.93;;;;;;;;;;5035619;28;20195;-77
2021/08/19 15:41:46;;;;;;;1.33;1.00;;;;;;;;;;5034399;28;20696;-77
2021/08/19 15:44:51;;;;;;;2.87;1.13;;;;;;;;;;5040439;28;20182;-77
2021/08/19 15:47:55;;;;;;;1.47;1.00;;;;;;;;;;5041719;28;20199;-77
2021/08/19 15:51:03;;;;;;;1.60;1.00;;;;;;;;;;5054209;28;20683;-76
2021/08/19 15:54:07;;;;;;;3.50;0.90;;;;;;;;;;5033160;28;20207;-76
2021/08/19 15:57:13;;;;;;;3.30;1.20;;;;;;;;;;5021855;28;20544;-77
2021/08/19 16:00:18;;;;;;;3.10;1.53;;;;;;;;;;5033499;28;20196;-76
2021/08/19 16:03:21;;;;;;;1.97;1.13;;;;;;;;;;5041635;28;20184;-76
2021/08/19 16:06:26;;;;;;;1.50;1.00;;;;;;;;;;5039378;28;20661;-76
2021/08/19 16:09:31;;;;;;;3.40;1.20;;;;;;;;;;5049948;28;20175;-76
2021/08/19 16:12:35;;;;;;;3.57;1.47;;;;;;;;;;5043330;28;20224;-76
2021/08/19 16:15:40;;;;;;;2.47;1.83;;;;;;;;;;5032852;28;20581;-76
2021/08/19 16:18:44;;;;;;;4.47;1.60;;;;;;;;;;5034912;28;20190;-76
2021/08/19 16:21:48;;;;;;;2.27;1.30;;;;;;;;;;5048364;28;20240;-76
2021/08/19 16:24:52;;;;;;;1.27;1.17;;;;;;;;;;5018648;28;20193;-76
2021/08/19 16:27:57;;;;;;;1.30;1.20;;;;;;;;;;5032059;28;20197;-76
2021/08/19 16:31:02;;;;;;;1.40;1.07;;;;;;;;;;5050217;28;20816;-76
2021/08/19 16:34:06;;;;;;;1.30;1.07;;;;;;;;;;5030894;28;20205;-76
2021/08/19 16:37:10;;;;;;;2.30;1.30;;;;;;;;;;5029013;28;20188;-76
2021/08/19 16:40:14;;;;;;;2.50;1.10;;;;;;;;;;5045597;28;20195;-76
2021/08/19 16:43:18;;;;;;;1.50;1.20;;;;;;;;;;5028968;28;20189;-76
2021/08/19 16:46:24;;;;;;;1.47;1.23;;;;;;;;;;5048916;28;20200;-76
2021/08/19 16:49:29;;;;;;;2.50;1.00;;;;;;;;;;5043613;28;20201;-76
2021/08/19 16:52:34;;;;;;;1.83;1.10;;;;;;;;;;5033793;28;20559;-76
2021/08/19 16:55:40;;;;;;;3.10;1.47;;;;;;;;;;5033268;28;20188;-77
2021/08/19 16:58:45;;;;;;;2.17;1.43;;;;;;;;;;5028889;28;20212;-76
2021/08/19 17:01:56;;;;;;;2.53;1.07;;;;;;;;;;5029880;28;20253;-76
2021/08/19 17:05:00;;;;;;;3.47;1.30;;;;;;;;;;5046686;28;20524;-76
2021/08/19 17:08:05;;;;;;;1.90;1.23;;;;;;;;;;5049212;28;20188;-76
2021/08/19 17:11:10;;;;;;;2.70;1.10;;;;;;;;;;5037068;28;20208;-76
2021/08/19 17:14:14;;;;;;;1.87;1.00;;;;;;;;;;5036712;28;20207;-76
2021/08/19 17:17:21;;;;;;;1.37;0.90;;;;;;;;;;5033921;28;20201;-76
2021/08/19 17:20:25;;;;;;;1.40;1.20;;;;;;;;;;5017492;28;20216;-76
2021/08/19 17:23:29;;;;;;;1.20;1.00;;;;;;;;;;5028684;28;20173;-76
2021/08/19 17:26:33;;;;;;;1.40;1.30;;;;;;;;;;5047401;28;20212;-76
2021/08/19 17:29:38;;;;;;;2.97;1.27;;;;;;;;;;5047758;28;20200;-77
2021/08/19 17:32:42;;;;;;;3.93;1.47;;;;;;;;;;5043243;28;20223;-76
2021/08/19 17:35:46;;;;;;;4.40;1.43;;;;;;;;;;5047606;28;20192;-76
2021/08/19 17:38:53;;;;;;;4.30;1.33;;;;;;;;;;5033066;28;20201;-76
2021/08/19 17:41:57;;;;;;;2.80;1.30;;;;;;;;;;5043637;28;20223;-77
2021/08/19 17:45:02;;;;;;;1.63;1.10;;;;;;;;;;5035321;28;20203;-77
2021/08/19 17:48:06;;;;;;;3.10;1.30;;;;;;;;;;5040425;28;20203;-77
2021/08/19 17:51:11;;;;;;;4.00;1.37;;;;;;;;;;5039742;28;20216;-76
2021/08/19 17:54:16;;;;;;;2.63;1.20;;;;;;;;;;5052753;28;20204;-77
2021/08/19 17:57:20;;;;;;;1.50;1.20;;;;;;;;;;5051687;28;20188;-76
2021/08/19 18:00:24;;;;;;;2.00;1.80;;;;;;;;;;5037524;28;20196;-76
2021/08/19 18:03:28;;;;;;;1.90;1.47;;;;;;;;;;5039681;28;20188;-76
2021/08/19 18:06:34;;;;;;;2.60;1.47;;;;;;;;;;5031745;28;20181;-76
2021/08/19 18:09:38;;;;;;;2.40;1.30;;;;;;;;;;5045538;28;20666;-76
2021/08/19 18:12:42;;;;;;;5.57;1.60;;;;;;;;;;5051594;28;20228;-76
2021/08/19 18:15:46;;;;;;;4.47;1.70;;;;;;;;;;5044734;28;20192;-76
2021/08/19 18:18:51;;;;;;;1.93;1.10;;;;;;;;;;5031636;28;20188;-76
2021/08/19 18:21:56;;;;;;;1.83;1.30;;;;;;;;;;5032229;28;20228;-75
2021/08/19 18:25:06;;;;;;;4.43;1.60;;;;;;;;;;5052090;28;20192;-76
2021/08/19 18:28:10;;;;;;;6.33;1.87;;;;;;;;;;5040316;28;20197;-77
2021/08/19 18:31:15;;;;;;;1.53;1.30;;;;;;;;;;5051145;28;20228;-75